sensor_id;sensor_type;location;lat;lon;timestamp;temperature;humidity
262;DHT22;114;48.260;10.988;2022-07-29T00:00:43;17.20;99.90
262;DHT22;114;48.260;10.988;2022-07-29T00:03:12;17.30;99.90
262;DHT22;114;48.260;10.988;2022-07-29T00:05:39;17.30;99.90
262;DHT22;114;48.260;10.988;2022-07-29T00:08:05;17.30;99.90
262;DHT22;114;48.260;10.988;2022-07-29T00:10:31;17.20;99.90
262;DHT22;114;48.260;10.988;2022-07-29T00:12:57;17.20;99.90
262;DHT22;114;48.260;10.988;2022-07-29T00:15:24;17.20;99.50
262;DHT22;114;48.260;10.988;2022-07-29T00:17:50;17.20;99.00
262;DHT22;114;48.260;10.988;2022-07-29T00:20:16;17.20;99.20
262;DHT22;114;48.260;10.988;2022-07-29T00:22:42;17.20;99.40
262;DHT22;114;48.260;10.988;2022-07-29T00:25:08;17.10;99.60
262;DHT22;114;48.260;10.988;2022-07-29T00:27:35;17.10;99.70
262;DHT22;114;48.260;10.988;2022-07-29T00:30:03;17.10;99.90
262;DHT22;114;48.260;10.988;2022-07-29T00:32:29;17.10;99.90
262;DHT22;114;48.260;10.988;2022-07-29T00:34:55;17.10;99.90
262;DHT22;114;48.260;10.988;2022-07-29T00:37:39;17.10;99.90
262;DHT22;114;48.260;10.988;2022-07-29T00:40:07;17.20;99.90
262;DHT22;114;48.260;10.988;2022-07-29T00:42:47;17.10;99.90
262;DHT22;114;48.260;10.988;2022-07-29T00:45:14;17.10;99.90
262;DHT22;114;48.260;10.988;2022-07-29T00:47:40;17.10;99.90
262;DHT22;114;48.260;10.988;2022-07-29T00:50:08;17.10;99.90
262;DHT22;114;48.260;10.988;2022-07-29T00:52:39;17.10;99.90
262;DHT22;114;48.260;10.988;2022-07-29T00:55:07;17.10;99.90
262;DHT22;114;48.260;10.988;2022-07-29T00:57:34;17.00;99.90
262;DHT22;114;48.260;10.988;2022-07-29T01:00:01;17.00;99.90
262;DHT22;114;48.260;10.988;2022-07-29T01:02:27;17.00;99.90
262;DHT22;114;48.260;10.988;2022-07-29T01:04:53;17.00;99.90
262;DHT22;114;48.260;10.988;2022-07-29T01:07:19;16.90;99.90
262;DHT22;114;48.260;10.988;2022-07-29T01:09:46;16.90;99.90
262;DHT22;114;48.260;10.988;2022-07-29T01:12:18;17.00;99.90
262;DHT22;114;48.260;10.988;2022-07-29T01:14:45;16.90;99.90
262;DHT22;114;48.260;10.988;2022-07-29T01:20:07;16.80;99.90
262;DHT22;114;48.260;10.988;2022-07-29T01:39:47;16.50;99.90
262;DHT22;114;48.260;10.988;2022-07-29T01:45:01;16.40;99.90
262;DHT22;114;48.260;10.988;2022-07-29T01:48:02;16.30;99.90
262;DHT22;114;48.260;10.988;2022-07-29T01:50:44;16.30;99.90
262;DHT22;114;48.260;10.988;2022-07-29T01:53:14;16.30;99.90
262;DHT22;114;48.260;10.988;2022-07-29T01:55:44;16.40;99.90
262;DHT22;114;48.260;10.988;2022-07-29T01:58:12;16.30;99.90
262;DHT22;114;48.260;10.988;2022-07-29T02:00:40;16.30;99.90
262;DHT22;114;48.260;10.988;2022-07-29T02:03:09;16.20;99.90
262;DHT22;114;48.260;10.988;2022-07-29T02:05:38;16.20;99.90
262;DHT22;114;48.260;10.988;2022-07-29T02:08:05;16.10;99.90
262;DHT22;114;48.260;10.988;2022-07-29T02:10:33;16.10;99.90
262;DHT22;114;48.260;10.988;2022-07-29T02:13:03;16.00;99.90
262;DHT22;114;48.260;10.988;2022-07-29T02:15:32;16.00;99.90
262;DHT22;114;48.260;10.988;2022-07-29T02:18:05;15.90;99.90
262;DHT22;114;48.260;10.988;2022-07-29T02:20:34;15.90;99.90
262;DHT22;114;48.260;10.988;2022-07-29T02:23:03;15.80;99.90
262;DHT22;114;48.260;10.988;2022-07-29T02:25:32;15.70;99.90
262;DHT22;114;48.260;10.988;2022-07-29T02:27:59;15.70;99.90
262;DHT22;114;48.260;10.988;2022-07-29T02:30:27;15.70;99.90
262;DHT22;114;48.260;10.988;2022-07-29T02:32:54;15.60;99.90
262;DHT22;114;48.260;10.988;2022-07-29T02:35:21;15.60;99.90
262;DHT22;114;48.260;10.988;2022-07-29T02:37:47;15.60;99.90
262;DHT22;114;48.260;10.988;2022-07-29T02:40:34;15.50;99.90
262;DHT22;114;48.260;10.988;2022-07-29T02:43:03;15.50;99.90
262;DHT22;114;48.260;10.988;2022-07-29T02:45:29;15.50;99.90
262;DHT22;114;48.260;10.988;2022-07-29T02:47:57;15.40;99.90
262;DHT22;114;48.260;10.988;2022-07-29T02:50:32;15.40;99.90
262;DHT22;114;48.260;10.988;2022-07-29T02:53:05;15.30;99.90
262;DHT22;114;48.260;10.988;2022-07-29T02:55:55;15.30;99.90
262;DHT22;114;48.260;10.988;2022-07-29T02:58:30;15.30;99.90
262;DHT22;114;48.260;10.988;2022-07-29T03:00:59;15.20;99.90
262;DHT22;114;48.260;10.988;2022-07-29T03:03:38;15.20;99.90
262;DHT22;114;48.260;10.988;2022-07-29T03:06:05;15.20;99.90
262;DHT22;114;48.260;10.988;2022-07-29T03:08:32;15.10;99.90
262;DHT22;114;48.260;10.988;2022-07-29T03:11:00;15.10;99.90
262;DHT22;114;48.260;10.988;2022-07-29T03:13:27;15.10;99.90
262;DHT22;114;48.260;10.988;2022-07-29T03:15:53;15.10;99.90
262;DHT22;114;48.260;10.988;2022-07-29T03:18:20;15.00;99.90
262;DHT22;114;48.260;10.988;2022-07-29T03:20:46;15.00;99.90
262;DHT22;114;48.260;10.988;2022-07-29T03:23:21;14.90;99.90
262;DHT22;114;48.260;10.988;2022-07-29T03:25:49;14.90;99.90
262;DHT22;114;48.260;10.988;2022-07-29T03:28:15;14.90;99.90
262;DHT22;114;48.260;10.988;2022-07-29T03:30:41;14.90;99.90
262;DHT22;114;48.260;10.988;2022-07-29T03:33:07;14.90;99.90
262;DHT22;114;48.260;10.988;2022-07-29T03:35:33;14.90;99.90
262;DHT22;114;48.260;10.988;2022-07-29T03:37:58;15.00;99.90
262;DHT22;114;48.260;10.988;2022-07-29T03:40:31;15.00;99.90
262;DHT22;114;48.260;10.988;2022-07-29T03:42:59;15.00;99.90
262;DHT22;114;48.260;10.988;2022-07-29T03:45:26;15.00;99.90
262;DHT22;114;48.260;10.988;2022-07-29T03:48:00;15.10;99.90
262;DHT22;114;48.260;10.988;2022-07-29T03:50:28;15.10;99.90
262;DHT22;114;48.260;10.988;2022-07-29T03:52:54;15.10;99.90
262;DHT22;114;48.260;10.988;2022-07-29T03:55:20;15.10;99.90
262;DHT22;114;48.260;10.988;2022-07-29T03:57:49;15.10;99.90
262;DHT22;114;48.260;10.988;2022-07-29T04:00:17;15.10;99.90
262;DHT22;114;48.260;10.988;2022-07-29T04:02:47;15.10;99.90
262;DHT22;114;48.260;10.988;2022-07-29T04:05:14;15.10;99.90
262;DHT22;114;48.260;10.988;2022-07-29T04:07:43;15.10;99.90
262;DHT22;114;48.260;10.988;2022-07-29T04:10:10;15.00;99.90
262;DHT22;114;48.260;10.988;2022-07-29T04:12:36;15.00;99.90
262;DHT22;114;48.260;10.988;2022-07-29T04:15:03;15.00;99.90
262;DHT22;114;48.260;10.988;2022-07-29T04:17:29;15.00;99.90
262;DHT22;114;48.260;10.988;2022-07-29T04:19:55;15.20;99.90
262;DHT22;114;48.260;10.988;2022-07-29T04:22:24;15.20;99.90
262;DHT22;114;48.260;10.988;2022-07-29T04:24:50;15.40;99.90
262;DHT22;114;48.260;10.988;2022-07-29T04:27:16;15.30;99.90
262;DHT22;114;48.260;10.988;2022-07-29T04:29:41;15.30;99.90
262;DHT22;114;48.260;10.988;2022-07-29T04:32:07;15.30;99.90
262;DHT22;114;48.260;10.988;2022-07-29T04:34:33;15.30;99.90
262;DHT22;114;48.260;10.988;2022-07-29T04:36:58;15.30;99.90
262;DHT22;114;48.260;10.988;2022-07-29T04:39:24;15.30;99.90
262;DHT22;114;48.260;10.988;2022-07-29T04:41:51;15.20;99.90
262;DHT22;114;48.260;10.988;2022-07-29T04:44:17;15.30;99.90
262;DHT22;114;48.260;10.988;2022-07-29T04:46:42;15.30;99.90
262;DHT22;114;48.260;10.988;2022-07-29T04:49:08;15.30;99.90
262;DHT22;114;48.260;10.988;2022-07-29T04:51:34;15.40;99.90
262;DHT22;114;48.260;10.988;2022-07-29T04:54:00;15.50;99.90
262;DHT22;114;48.260;10.988;2022-07-29T04:56:26;15.60;99.90
262;DHT22;114;48.260;10.988;2022-07-29T04:58:52;15.60;99.90
262;DHT22;114;48.260;10.988;2022-07-29T05:01:18;15.60;99.90
262;DHT22;114;48.260;10.988;2022-07-29T05:03:43;15.60;99.90
262;DHT22;114;48.260;10.988;2022-07-29T05:06:10;15.70;99.90
262;DHT22;114;48.260;10.988;2022-07-29T05:08:37;15.80;99.90
262;DHT22;114;48.260;10.988;2022-07-29T05:11:03;15.90;99.90
262;DHT22;114;48.260;10.988;2022-07-29T05:13:29;16.00;99.90
262;DHT22;114;48.260;10.988;2022-07-29T05:15:55;16.00;99.90
262;DHT22;114;48.260;10.988;2022-07-29T05:18:24;16.10;99.90
262;DHT22;114;48.260;10.988;2022-07-29T05:20:49;16.20;99.90
262;DHT22;114;48.260;10.988;2022-07-29T05:23:15;16.10;99.90
262;DHT22;114;48.260;10.988;2022-07-29T05:25:41;16.20;99.90
262;DHT22;114;48.260;10.988;2022-07-29T05:28:07;16.20;99.90
262;DHT22;114;48.260;10.988;2022-07-29T05:30:32;16.40;99.90
262;DHT22;114;48.260;10.988;2022-07-29T05:32:58;16.40;99.90
262;DHT22;114;48.260;10.988;2022-07-29T05:35:24;16.50;99.90
262;DHT22;114;48.260;10.988;2022-07-29T05:37:49;16.70;99.90
262;DHT22;114;48.260;10.988;2022-07-29T05:40:15;16.80;99.70
262;DHT22;114;48.260;10.988;2022-07-29T05:42:43;17.00;99.20
262;DHT22;114;48.260;10.988;2022-07-29T05:45:09;17.10;98.30
262;DHT22;114;48.260;10.988;2022-07-29T05:47:35;17.20;98.20
262;DHT22;114;48.260;10.988;2022-07-29T05:50:00;17.30;97.80
262;DHT22;114;48.260;10.988;2022-07-29T05:52:26;17.40;97.80
262;DHT22;114;48.260;10.988;2022-07-29T05:54:52;17.60;93.10
262;DHT22;114;48.260;10.988;2022-07-29T05:57:19;17.80;87.50
262;DHT22;114;48.260;10.988;2022-07-29T05:59:46;17.90;81.40
262;DHT22;114;48.260;10.988;2022-07-29T06:02:13;18.20;76.40
262;DHT22;114;48.260;10.988;2022-07-29T06:04:39;18.40;73.00
262;DHT22;114;48.260;10.988;2022-07-29T06:07:08;18.50;67.20
262;DHT22;114;48.260;10.988;2022-07-29T06:09:37;18.60;63.50
262;DHT22;114;48.260;10.988;2022-07-29T06:12:03;18.70;62.00
262;DHT22;114;48.260;10.988;2022-07-29T06:14:30;18.80;63.70
262;DHT22;114;48.260;10.988;2022-07-29T06:16:56;18.90;53.90
262;DHT22;114;48.260;10.988;2022-07-29T06:19:22;19.00;58.90
262;DHT22;114;48.260;10.988;2022-07-29T06:21:48;19.20;52.40
262;DHT22;114;48.260;10.988;2022-07-29T06:24:15;19.30;50.10
262;DHT22;114;48.260;10.988;2022-07-29T06:26:46;19.40;43.70
262;DHT22;114;48.260;10.988;2022-07-29T06:29:16;19.30;48.80
262;DHT22;114;48.260;10.988;2022-07-29T06:31:42;19.30;49.70
262;DHT22;114;48.260;10.988;2022-07-29T06:34:11;19.40;52.60
262;DHT22;114;48.260;10.988;2022-07-29T06:37:09;19.60;48.10
262;DHT22;114;48.260;10.988;2022-07-29T06:39:36;19.60;46.90
262;DHT22;114;48.260;10.988;2022-07-29T06:42:05;19.60;48.50
262;DHT22;114;48.260;10.988;2022-07-29T06:44:32;19.70;45.30
262;DHT22;114;48.260;10.988;2022-07-29T06:47:01;19.80;45.80
262;DHT22;114;48.260;10.988;2022-07-29T06:49:26;19.70;47.60
262;DHT22;114;48.260;10.988;2022-07-29T06:51:54;19.60;41.20
262;DHT22;114;48.260;10.988;2022-07-29T06:54:20;19.70;34.90
262;DHT22;114;48.260;10.988;2022-07-29T06:56:47;19.80;39.10
262;DHT22;114;48.260;10.988;2022-07-29T06:59:13;20.00;30.90
262;DHT22;114;48.260;10.988;2022-07-29T07:01:49;20.10;35.00
262;DHT22;114;48.260;10.988;2022-07-29T07:07:13;20.30;33.20
262;DHT22;114;48.260;10.988;2022-07-29T07:09:39;20.40;33.60
262;DHT22;114;48.260;10.988;2022-07-29T07:12:05;20.80;23.50
262;DHT22;114;48.260;10.988;2022-07-29T07:14:32;21.00;22.00
262;DHT22;114;48.260;10.988;2022-07-29T07:16:57;21.10;23.40
262;DHT22;114;48.260;10.988;2022-07-29T07:19:26;21.30;15.50
262;DHT22;114;48.260;10.988;2022-07-29T07:21:55;21.30;19.10
262;DHT22;114;48.260;10.988;2022-07-29T07:24:21;21.30;14.20
262;DHT22;114;48.260;10.988;2022-07-29T07:26:47;21.30;12.50
262;DHT22;114;48.260;10.988;2022-07-29T07:29:12;21.20;9.80
262;DHT22;114;48.260;10.988;2022-07-29T07:31:38;21.70;10.00
262;DHT22;114;48.260;10.988;2022-07-29T07:34:04;21.60;12.50
262;DHT22;114;48.260;10.988;2022-07-29T07:36:30;21.50;6.50
262;DHT22;114;48.260;10.988;2022-07-29T07:38:59;21.60;4.50
262;DHT22;114;48.260;10.988;2022-07-29T07:41:24;21.60;13.10
262;DHT22;114;48.260;10.988;2022-07-29T07:43:50;21.90;3.90
262;DHT22;114;48.260;10.988;2022-07-29T07:46:16;21.90;5.20
262;DHT22;114;48.260;10.988;2022-07-29T07:48:42;21.70;3.40
262;DHT22;114;48.260;10.988;2022-07-29T07:51:07;21.50;5.90
262;DHT22;114;48.260;10.988;2022-07-29T07:53:33;21.60;2.70
262;DHT22;114;48.260;10.988;2022-07-29T07:55:59;21.60;7.80
262;DHT22;114;48.260;10.988;2022-07-29T07:58:25;22.10;4.90
262;DHT22;114;48.260;10.988;2022-07-29T08:00:51;22.30;5.70
262;DHT22;114;48.260;10.988;2022-07-29T08:03:17;22.70;1.00
262;DHT22;114;48.260;10.988;2022-07-29T08:05:44;22.80;1.00
262;DHT22;114;48.260;10.988;2022-07-29T08:08:11;22.70;1.00
262;DHT22;114;48.260;10.988;2022-07-29T08:10:38;22.50;1.00
262;DHT22;114;48.260;10.988;2022-07-29T08:13:25;22.50;1.00
262;DHT22;114;48.260;10.988;2022-07-29T08:15:53;22.70;1.00
262;DHT22;114;48.260;10.988;2022-07-29T08:18:30;22.90;1.00
262;DHT22;114;48.260;10.988;2022-07-29T08:20:59;22.90;1.00
262;DHT22;114;48.260;10.988;2022-07-29T08:23:25;22.90;1.00
262;DHT22;114;48.260;10.988;2022-07-29T08:25:52;22.90;1.00
262;DHT22;114;48.260;10.988;2022-07-29T08:28:18;22.40;1.00
262;DHT22;114;48.260;10.988;2022-07-29T08:30:44;22.30;1.20
262;DHT22;114;48.260;10.988;2022-07-29T08:33:10;22.30;3.60
262;DHT22;114;48.260;10.988;2022-07-29T08:35:36;22.50;1.00
262;DHT22;114;48.260;10.988;2022-07-29T08:38:04;22.60;1.00
262;DHT22;114;48.260;10.988;2022-07-29T08:40:30;22.50;1.00
262;DHT22;114;48.260;10.988;2022-07-29T08:42:56;22.50;2.70
262;DHT22;114;48.260;10.988;2022-07-29T08:45:23;22.80;1.00
262;DHT22;114;48.260;10.988;2022-07-29T08:47:48;22.50;1.00
262;DHT22;114;48.260;10.988;2022-07-29T08:50:14;22.60;1.00
262;DHT22;114;48.260;10.988;2022-07-29T08:52:41;22.80;1.00
262;DHT22;114;48.260;10.988;2022-07-29T08:55:10;22.90;1.00
262;DHT22;114;48.260;10.988;2022-07-29T08:57:37;22.90;1.00
262;DHT22;114;48.260;10.988;2022-07-29T09:00:06;23.20;1.00
262;DHT22;114;48.260;10.988;2022-07-29T09:02:39;23.00;1.00
262;DHT22;114;48.260;10.988;2022-07-29T09:05:05;23.10;1.00
262;DHT22;114;48.260;10.988;2022-07-29T09:07:32;23.20;1.00
262;DHT22;114;48.260;10.988;2022-07-29T09:09:59;23.30;1.00
262;DHT22;114;48.260;10.988;2022-07-29T09:12:25;23.20;1.00
262;DHT22;114;48.260;10.988;2022-07-29T09:14:51;23.00;1.00
262;DHT22;114;48.260;10.988;2022-07-29T09:17:17;23.50;1.00
262;DHT22;114;48.260;10.988;2022-07-29T09:19:44;23.90;1.00
262;DHT22;114;48.260;10.988;2022-07-29T09:22:09;24.20;1.00
262;DHT22;114;48.260;10.988;2022-07-29T09:24:53;24.00;1.00
262;DHT22;114;48.260;10.988;2022-07-29T09:27:20;23.80;1.00
262;DHT22;114;48.260;10.988;2022-07-29T09:30:08;23.80;1.00
262;DHT22;114;48.260;10.988;2022-07-29T09:33:01;24.30;1.00
262;DHT22;114;48.260;10.988;2022-07-29T09:35:29;24.00;1.00
262;DHT22;114;48.260;10.988;2022-07-29T09:37:55;24.10;1.00
262;DHT22;114;48.260;10.988;2022-07-29T09:40:24;23.90;1.00
262;DHT22;114;48.260;10.988;2022-07-29T09:42:52;24.00;1.00
262;DHT22;114;48.260;10.988;2022-07-29T09:45:33;23.80;1.00
262;DHT22;114;48.260;10.988;2022-07-29T09:47:59;23.50;1.00
262;DHT22;114;48.260;10.988;2022-07-29T09:50:41;23.70;1.00
262;DHT22;114;48.260;10.988;2022-07-29T09:53:08;23.50;1.00
262;DHT22;114;48.260;10.988;2022-07-29T09:55:50;23.90;1.00
262;DHT22;114;48.260;10.988;2022-07-29T09:58:18;24.20;1.00
262;DHT22;114;48.260;10.988;2022-07-29T10:00:45;24.50;1.00
262;DHT22;114;48.260;10.988;2022-07-29T10:03:12;24.80;1.00
262;DHT22;114;48.260;10.988;2022-07-29T10:05:38;24.90;1.00
262;DHT22;114;48.260;10.988;2022-07-29T10:08:05;24.80;1.00
262;DHT22;114;48.260;10.988;2022-07-29T10:10:37;24.90;1.00
262;DHT22;114;48.260;10.988;2022-07-29T10:13:12;25.20;1.00
262;DHT22;114;48.260;10.988;2022-07-29T10:15:40;25.40;1.00
262;DHT22;114;48.260;10.988;2022-07-29T10:18:09;25.20;1.00
262;DHT22;114;48.260;10.988;2022-07-29T10:20:36;25.70;1.00
262;DHT22;114;48.260;10.988;2022-07-29T10:23:02;25.40;1.00
262;DHT22;114;48.260;10.988;2022-07-29T10:25:28;25.70;1.00
262;DHT22;114;48.260;10.988;2022-07-29T10:27:54;25.20;1.00
262;DHT22;114;48.260;10.988;2022-07-29T10:30:23;25.00;1.00
262;DHT22;114;48.260;10.988;2022-07-29T10:36:07;25.50;1.00
262;DHT22;114;48.260;10.988;2022-07-29T10:44:05;26.30;1.00
262;DHT22;114;48.260;10.988;2022-07-29T10:46:40;25.70;1.00
262;DHT22;114;48.260;10.988;2022-07-29T10:49:07;26.20;1.00
262;DHT22;114;48.260;10.988;2022-07-29T11:05:14;26.00;1.00
262;DHT22;114;48.260;10.988;2022-07-29T11:10:38;28.00;1.00
262;DHT22;114;48.260;10.988;2022-07-29T11:13:04;28.60;1.00
262;DHT22;114;48.260;10.988;2022-07-29T11:15:56;28.20;1.00
262;DHT22;114;48.260;10.988;2022-07-29T11:18:23;27.90;1.00
262;DHT22;114;48.260;10.988;2022-07-29T11:20:50;28.60;1.00
262;DHT22;114;48.260;10.988;2022-07-29T11:23:30;29.30;1.00
262;DHT22;114;48.260;10.988;2022-07-29T11:26:14;29.30;1.00
262;DHT22;114;48.260;10.988;2022-07-29T11:29:11;30.10;1.00
262;DHT22;114;48.260;10.988;2022-07-29T11:31:43;29.80;1.00
262;DHT22;114;48.260;10.988;2022-07-29T11:39:46;30.50;1.00
262;DHT22;114;48.260;10.988;2022-07-29T11:47:41;29.60;1.00
262;DHT22;114;48.260;10.988;2022-07-29T11:50:14;29.90;1.00
262;DHT22;114;48.260;10.988;2022-07-29T11:52:42;30.30;1.00
262;DHT22;114;48.260;10.988;2022-07-29T11:55:11;31.30;1.00
262;DHT22;114;48.260;10.988;2022-07-29T11:57:46;31.30;1.00
262;DHT22;114;48.260;10.988;2022-07-29T12:00:21;32.10;1.00
262;DHT22;114;48.260;10.988;2022-07-29T12:02:47;32.00;1.00
262;DHT22;114;48.260;10.988;2022-07-29T12:05:13;31.70;1.00
262;DHT22;114;48.260;10.988;2022-07-29T12:07:39;32.00;1.00
262;DHT22;114;48.260;10.988;2022-07-29T12:10:08;30.80;1.00
262;DHT22;114;48.260;10.988;2022-07-29T12:12:35;30.20;1.00
262;DHT22;114;48.260;10.988;2022-07-29T12:15:15;30.50;1.00
262;DHT22;114;48.260;10.988;2022-07-29T12:17:43;30.90;1.00
262;DHT22;114;48.260;10.988;2022-07-29T12:20:09;31.00;1.00
262;DHT22;114;48.260;10.988;2022-07-29T12:22:36;31.40;1.00
262;DHT22;114;48.260;10.988;2022-07-29T12:25:07;31.10;1.00
262;DHT22;114;48.260;10.988;2022-07-29T12:27:40;30.60;1.00
262;DHT22;114;48.260;10.988;2022-07-29T12:30:14;29.80;1.00
262;DHT22;114;48.260;10.988;2022-07-29T12:32:42;29.20;1.00
262;DHT22;114;48.260;10.988;2022-07-29T12:35:13;28.90;1.00
262;DHT22;114;48.260;10.988;2022-07-29T12:37:41;28.30;1.00
262;DHT22;114;48.260;10.988;2022-07-29T12:40:09;28.10;1.00
262;DHT22;114;48.260;10.988;2022-07-29T12:42:35;27.80;1.00
262;DHT22;114;48.260;10.988;2022-07-29T12:45:01;27.60;1.00
262;DHT22;114;48.260;10.988;2022-07-29T12:47:28;27.60;1.00
262;DHT22;114;48.260;10.988;2022-07-29T12:50:14;27.50;1.00
262;DHT22;114;48.260;10.988;2022-07-29T12:52:45;27.20;1.00
262;DHT22;114;48.260;10.988;2022-07-29T12:55:11;27.20;1.00
262;DHT22;114;48.260;10.988;2022-07-29T12:57:50;27.20;1.00
262;DHT22;114;48.260;10.988;2022-07-29T13:00:22;26.50;1.00
262;DHT22;114;48.260;10.988;2022-07-29T13:02:59;26.10;1.00
262;DHT22;114;48.260;10.988;2022-07-29T13:05:40;25.90;1.00
262;DHT22;114;48.260;10.988;2022-07-29T13:08:17;25.90;1.00
262;DHT22;114;48.260;10.988;2022-07-29T13:10:47;25.70;1.00
262;DHT22;114;48.260;10.988;2022-07-29T13:13:15;25.80;1.00
262;DHT22;114;48.260;10.988;2022-07-29T13:15:43;25.90;1.00
262;DHT22;114;48.260;10.988;2022-07-29T13:18:34;25.90;1.00
262;DHT22;114;48.260;10.988;2022-07-29T13:21:15;26.20;1.00
262;DHT22;114;48.260;10.988;2022-07-29T13:23:41;26.00;1.00
262;DHT22;114;48.260;10.988;2022-07-29T13:26:11;25.80;1.00
262;DHT22;114;48.260;10.988;2022-07-29T13:28:37;25.70;1.00
262;DHT22;114;48.260;10.988;2022-07-29T13:31:03;25.60;1.00
262;DHT22;114;48.260;10.988;2022-07-29T13:33:30;25.30;1.00
262;DHT22;114;48.260;10.988;2022-07-29T13:35:56;25.30;1.00
262;DHT22;114;48.260;10.988;2022-07-29T13:38:21;25.20;1.00
262;DHT22;114;48.260;10.988;2022-07-29T13:40:50;25.20;1.00
262;DHT22;114;48.260;10.988;2022-07-29T13:43:16;25.20;1.00
262;DHT22;114;48.260;10.988;2022-07-29T13:45:41;24.90;1.00
262;DHT22;114;48.260;10.988;2022-07-29T13:48:07;25.00;1.00
262;DHT22;114;48.260;10.988;2022-07-29T13:50:33;25.10;1.00
262;DHT22;114;48.260;10.988;2022-07-29T13:52:58;25.10;1.00
262;DHT22;114;48.260;10.988;2022-07-29T13:55:24;25.30;1.00
262;DHT22;114;48.260;10.988;2022-07-29T13:57:50;25.40;1.00
262;DHT22;114;48.260;10.988;2022-07-29T14:00:16;25.60;1.00
262;DHT22;114;48.260;10.988;2022-07-29T14:02:42;25.60;1.00
262;DHT22;114;48.260;10.988;2022-07-29T14:05:08;26.00;1.00
262;DHT22;114;48.260;10.988;2022-07-29T14:07:36;26.30;1.00
262;DHT22;114;48.260;10.988;2022-07-29T14:10:02;26.80;1.00
262;DHT22;114;48.260;10.988;2022-07-29T14:12:29;27.10;1.00
262;DHT22;114;48.260;10.988;2022-07-29T14:14:55;27.20;1.00
262;DHT22;114;48.260;10.988;2022-07-29T14:17:21;28.00;1.00
262;DHT22;114;48.260;10.988;2022-07-29T14:19:47;29.50;1.00
262;DHT22;114;48.260;10.988;2022-07-29T14:22:13;29.20;1.00
262;DHT22;114;48.260;10.988;2022-07-29T14:24:39;27.90;1.00
262;DHT22;114;48.260;10.988;2022-07-29T14:27:05;27.20;1.00
262;DHT22;114;48.260;10.988;2022-07-29T14:29:31;27.10;1.00
262;DHT22;114;48.260;10.988;2022-07-29T14:31:57;26.60;1.00
262;DHT22;114;48.260;10.988;2022-07-29T14:34:24;27.00;1.00
262;DHT22;114;48.260;10.988;2022-07-29T14:36:50;27.80;1.00
262;DHT22;114;48.260;10.988;2022-07-29T14:39:15;30.20;1.00
262;DHT22;114;48.260;10.988;2022-07-29T14:41:42;31.50;1.00
262;DHT22;114;48.260;10.988;2022-07-29T14:44:09;30.80;1.00
262;DHT22;114;48.260;10.988;2022-07-29T14:46:35;29.80;1.00
262;DHT22;114;48.260;10.988;2022-07-29T14:49:00;28.40;1.00
262;DHT22;114;48.260;10.988;2022-07-29T14:51:26;27.60;1.00
262;DHT22;114;48.260;10.988;2022-07-29T14:53:52;27.40;1.00
262;DHT22;114;48.260;10.988;2022-07-29T14:56:18;27.20;1.00
262;DHT22;114;48.260;10.988;2022-07-29T14:58:43;27.40;1.00
262;DHT22;114;48.260;10.988;2022-07-29T15:01:09;27.20;1.00
262;DHT22;114;48.260;10.988;2022-07-29T15:03:35;27.10;1.00
262;DHT22;114;48.260;10.988;2022-07-29T15:06:00;26.70;1.00
262;DHT22;114;48.260;10.988;2022-07-29T15:08:27;26.30;1.00
262;DHT22;114;48.260;10.988;2022-07-29T15:10:55;26.60;1.00
262;DHT22;114;48.260;10.988;2022-07-29T15:13:22;26.60;1.00
262;DHT22;114;48.260;10.988;2022-07-29T15:15:48;26.80;1.00
262;DHT22;114;48.260;10.988;2022-07-29T15:18:15;27.20;1.00
262;DHT22;114;48.260;10.988;2022-07-29T15:20:41;26.70;1.00
262;DHT22;114;48.260;10.988;2022-07-29T15:23:07;27.00;1.00
262;DHT22;114;48.260;10.988;2022-07-29T15:25:35;27.40;1.00
262;DHT22;114;48.260;10.988;2022-07-29T15:28:02;28.00;1.00
262;DHT22;114;48.260;10.988;2022-07-29T15:30:30;27.20;1.00
262;DHT22;114;48.260;10.988;2022-07-29T15:32:56;27.60;1.00
262;DHT22;114;48.260;10.988;2022-07-29T15:35:21;28.00;1.00
262;DHT22;114;48.260;10.988;2022-07-29T15:37:47;27.70;1.00
262;DHT22;114;48.260;10.988;2022-07-29T15:40:13;27.70;1.00
262;DHT22;114;48.260;10.988;2022-07-29T15:42:38;27.70;1.00
262;DHT22;114;48.260;10.988;2022-07-29T15:45:04;27.10;1.00
262;DHT22;114;48.260;10.988;2022-07-29T15:47:30;27.00;1.00
262;DHT22;114;48.260;10.988;2022-07-29T15:49:56;26.60;1.00
262;DHT22;114;48.260;10.988;2022-07-29T15:52:22;26.30;1.00
262;DHT22;114;48.260;10.988;2022-07-29T15:54:48;26.10;1.00
262;DHT22;114;48.260;10.988;2022-07-29T15:57:14;25.50;1.00
262;DHT22;114;48.260;10.988;2022-07-29T15:59:39;25.60;1.00
262;DHT22;114;48.260;10.988;2022-07-29T16:02:05;25.50;1.00
262;DHT22;114;48.260;10.988;2022-07-29T16:04:31;25.20;1.00
262;DHT22;114;48.260;10.988;2022-07-29T16:06:57;24.70;1.00
262;DHT22;114;48.260;10.988;2022-07-29T16:09:25;24.80;1.00
262;DHT22;114;48.260;10.988;2022-07-29T16:11:51;24.70;1.00
262;DHT22;114;48.260;10.988;2022-07-29T16:14:21;24.40;1.00
262;DHT22;114;48.260;10.988;2022-07-29T16:16:47;24.20;1.00
262;DHT22;114;48.260;10.988;2022-07-29T16:19:13;24.00;1.00
262;DHT22;114;48.260;10.988;2022-07-29T16:21:39;23.90;1.00
262;DHT22;114;48.260;10.988;2022-07-29T16:24:05;23.90;1.00
262;DHT22;114;48.260;10.988;2022-07-29T16:26:32;23.90;1.00
262;DHT22;114;48.260;10.988;2022-07-29T16:28:58;23.80;1.00
262;DHT22;114;48.260;10.988;2022-07-29T16:31:25;23.70;1.00
262;DHT22;114;48.260;10.988;2022-07-29T16:33:53;23.50;1.00
262;DHT22;114;48.260;10.988;2022-07-29T16:36:20;23.30;1.00
262;DHT22;114;48.260;10.988;2022-07-29T16:38:47;22.90;1.00
262;DHT22;114;48.260;10.988;2022-07-29T16:41:13;22.60;1.00
262;DHT22;114;48.260;10.988;2022-07-29T16:43:39;22.40;1.00
262;DHT22;114;48.260;10.988;2022-07-29T16:46:07;22.10;1.00
262;DHT22;114;48.260;10.988;2022-07-29T16:48:33;21.60;1.00
262;DHT22;114;48.260;10.988;2022-07-29T16:50:59;21.10;1.00
262;DHT22;114;48.260;10.988;2022-07-29T16:53:25;20.60;1.00
262;DHT22;114;48.260;10.988;2022-07-29T16:55:54;20.30;1.80
262;DHT22;114;48.260;10.988;2022-07-29T16:58:20;20.00;8.30
262;DHT22;114;48.260;10.988;2022-07-29T17:00:45;19.60;14.30
262;DHT22;114;48.260;10.988;2022-07-29T17:03:11;19.20;20.60
262;DHT22;114;48.260;10.988;2022-07-29T17:05:37;18.90;23.20
262;DHT22;114;48.260;10.988;2022-07-29T17:08:02;18.70;26.20
262;DHT22;114;48.260;10.988;2022-07-29T17:10:28;18.60;27.70
262;DHT22;114;48.260;10.988;2022-07-29T17:12:54;18.40;33.70
262;DHT22;114;48.260;10.988;2022-07-29T17:15:20;18.40;38.30
262;DHT22;114;48.260;10.988;2022-07-29T17:17:46;18.30;47.00
262;DHT22;114;48.260;10.988;2022-07-29T17:20:12;18.20;42.80
262;DHT22;114;48.260;10.988;2022-07-29T17:22:38;18.00;45.30
262;DHT22;114;48.260;10.988;2022-07-29T17:25:06;17.90;47.40
262;DHT22;114;48.260;10.988;2022-07-29T17:27:32;17.80;51.80
262;DHT22;114;48.260;10.988;2022-07-29T17:29:58;17.70;57.20
262;DHT22;114;48.260;10.988;2022-07-29T17:32:26;17.70;58.10
262;DHT22;114;48.260;10.988;2022-07-29T17:34:52;17.70;59.10